Change the Weather History Date:

Wednesday, February 12, 2014

  Actual Average Record
Temperature  
Mean Temperature 38 °F -  
Max Temperature 49 °F - - ()
Min Temperature 28 °F - - ()
Degree Days  
Heating Degree Days 26    
Moisture  
Dew Point 31 °F    
Average Humidity 72    
Maximum Humidity 100    
Minimum Humidity 32    
Precipitation  
Precipitation 0.04 in - - ()
Sea Level Pressure  
Sea Level Pressure 29.93 in    
Wind  
Wind Speed 10 mph ()    
Max Wind Speed 18 mph    
Max Gust Speed -    
Visibility 6.2 miles    
Events Fog , Rain    
T = Trace of Precipitation, MM = Missing Value Source: Averaged Metar Reports

Daily Weather History Graph

Daily Weather History Graph

Search for Another Location

Airport or City:

Trip Planner

Search our weather history database for the weather conditions in past years. The results will help you decide how hot, cold, wet, or windy it might be!

Date:

Astronomy

Feb. 12, 2014 Rise Set
Actual Time 7:54 AM CET 6:14 PM CET
Civil Twilight 7:24 AM CET 6:44 PM CET
Nautical Twilight 6:50 AM CET 7:18 PM CET
Astronomical Twilight 6:16 AM CET 7:52 PM CET
Moon 4:12 PM CET (2/12) 6:04 AM CET (2/12)
Length of Visible Light 11h 20m
Length of Day
10h 20m
Waxing Gibbous, 94% of the Moon is Illuminated
Feb 12
Waxing Gibbous
Feb 15
Full
Feb 22
Last Quarter
Mar 1
New
Mar 8
First Quarter

Hourly Weather History & Observations

Time (CET) Temp. Windchill Dew Point Humidity Pressure Visibility Wind Dir Wind Speed Gust Speed Precip Events Conditions
12:00 AM 37 °F - 37 °F 98% 29.90 in 6 mi WNW 18.4 mph - - Rain Light Rain
12:00 AM 37.4 °F 27.5 °F 37.4 °F 100% 29.83 in 5.6 mi WNW 18.4 mph - N/A Rain Light Rain
12:30 AM 37.4 °F 27.5 °F 37.4 °F 100% 29.86 in 1.4 mi WNW 18.4 mph - N/A Rain Light Rain
1:00 AM 37 °F - 36 °F 92% 29.94 in 4 mi WNW 18.4 mph - - Rain Light Drizzle
1:00 AM 37.4 °F 27.5 °F 35.6 °F 93% 29.86 in 4.3 mi WNW 18.4 mph - N/A   Light Drizzle
1:30 AM 37.4 °F 28.2 °F 35.6 °F 93% 29.89 in 6.2 mi West 16.1 mph - N/A   Overcast
2:00 AM 37 °F - 35 °F 92% 29.97 in 4 mi West 18.4 mph - - Rain Light Drizzle
2:00 AM 37.4 °F 27.5 °F 35.6 °F 93% 29.92 in 4.3 mi West 18.4 mph - N/A   Light Drizzle
2:30 AM 37.4 °F 28.2 °F 35.6 °F 93% 29.92 in 6.2 mi West 16.1 mph - N/A   Overcast
3:00 AM 37 °F - 35 °F 92% 29.99 in 12 mi WNW 17.3 mph - -   Clear
3:00 AM 37.4 °F 27.8 °F 35.6 °F 93% 29.92 in 6.2 mi WNW 17.3 mph - N/A   Overcast
3:30 AM 37.4 °F 28.2 °F 35.6 °F 93% 29.92 in 6.2 mi WNW 16.1 mph - N/A   Overcast
4:00 AM 37 °F - 35 °F 87% 30.00 in 22 mi West 16.1 mph - -   Clear
4:00 AM 37.4 °F 28.2 °F 33.8 °F 87% 29.92 in 6.2 mi West 16.1 mph - N/A   Overcast
4:30 AM 35.6 °F 25.9 °F 33.8 °F 93% 29.95 in 6.2 mi West 16.1 mph - N/A   Overcast
5:00 AM 36 °F - 34 °F 89% 30.04 in 22 mi West 13.8 mph - -   Clear
5:00 AM 35.6 °F 26.6 °F 33.8 °F 93% 29.98 in 6.2 mi West 13.8 mph - N/A   Overcast
5:30 AM 35.6 °F 27.5 °F 33.8 °F 93% 29.98 in 6.2 mi WNW 11.5 mph - N/A   Overcast
6:00 AM 33 °F - 31 °F 90% 30.07 in 22 mi West 10.4 mph - -   Clear
6:00 AM 33.8 °F 25.8 °F 32.0 °F 93% 29.98 in 6.2 mi West 10.4 mph - N/A   Mostly Cloudy
6:30 AM 33.8 °F 27.0 °F 32.0 °F 93% 30.01 in 6.2 mi WNW 8.1 mph - N/A   Unknown
7:00 AM 31 °F - 30 °F 94% 30.09 in 18 mi West 2.3 mph - -   Clear
7:00 AM 32.0 °F - 30.2 °F 93% 30.01 in 6.2 mi West 2.3 mph - N/A   Unknown
7:30 AM 32.0 °F - 30.2 °F 93% 29.98 in 6.2 mi Calm Calm - N/A   Unknown
8:00 AM 29 °F - 27 °F 91% 30.10 in 1 mi South 2.3 mph - -   Mist
8:00 AM 28.4 °F - 26.6 °F 93% 29.98 in 0.7 mi Variable 2.3 mph - N/A Fog Patches of Fog
8:30 AM 30.2 °F 26.7 °F 30.2 °F 100% 29.98 in 0.4 mi SSW 3.5 mph - N/A Fog Light Freezing Fog
9:00 AM 32 °F - 31 °F 92% 30.08 in 7 mi SSW 2.3 mph - -   Clear
9:00 AM 32.0 °F - 30.2 °F 93% 29.98 in 6.2 mi SSW 2.3 mph - N/A   Unknown
9:30 AM 35.6 °F 32.8 °F 33.8 °F 93% 29.98 in 6.2 mi SSE 3.5 mph - N/A   Unknown
10:00 AM 37 °F - 33 °F 81% 30.04 in 12 mi East 4.6 mph - -   Clear
10:00 AM 37.4 °F 33.8 °F 33.8 °F 87% 29.98 in 6.2 mi East 4.6 mph - N/A   Unknown
10:30 AM 37.4 °F 32.1 °F 33.8 °F 87% 29.95 in 6.2 mi East 6.9 mph - N/A   Unknown
11:00 AM 37 °F - 33 °F 82% 30.01 in 37 mi East 8.1 mph - -   Clear
11:00 AM 37.4 °F 31.4 °F 33.8 °F 87% 29.95 in 6.2 mi East 8.1 mph - N/A   Partly Cloudy
11:30 AM 41.0 °F - 33.8 °F 76% 29.95 in 6.2 mi Variable 2.3 mph - N/A   Unknown
12:00 PM 42 °F - 30 °F 51% 30.02 in 12 mi SSW 1.2 mph - -   Clear
12:00 PM 42.8 °F - 30.2 °F 61% 29.98 in 6.2 mi Variable 1.2 mph - N/A   Unknown
12:30 PM 42.8 °F 41.1 °F 30.2 °F 61% 29.95 in 6.2 mi Variable 3.5 mph - N/A   Unknown
1:00 PM 44 °F - 29 °F 43% 29.95 in 37 mi ESE 9.2 mph - -   Clear
1:00 PM 44.6 °F 39.7 °F 28.4 °F 53% 29.92 in 6.2 mi ESE 9.2 mph - N/A   Unknown
1:30 PM 46.4 °F 41.5 °F 28.4 °F 50% 29.89 in 6.2 mi ESE 10.4 mph - N/A   Unknown
2:00 PM 46.4 °F 41.9 °F 28.4 °F 50% 29.89 in 6.2 mi SE 9.2 mph - N/A   Unknown
2:30 PM 48.2 °F - 28.4 °F 46% 29.86 in 6.2 mi SE 11.5 mph - N/A   Unknown
3:00 PM 49 °F - 28 °F 32% 29.88 in 28 mi SE 8.1 mph - -   Clear
3:00 PM 48.2 °F - 28.4 °F 46% 29.86 in 6.2 mi SE 8.1 mph - N/A   Unknown
3:30 PM 50.0 °F - 30.2 °F 47% 29.86 in 6.2 mi SE 6.9 mph - N/A   Unknown
4:00 PM 49 °F - 30 °F 35% 29.85 in 37 mi SSE 8.1 mph - -   Clear
4:00 PM 48.2 °F - 30.2 °F 50% 29.83 in 6.2 mi SSE 8.1 mph - N/A   Unknown
4:30 PM 48.2 °F - 33.8 °F 58% 29.83 in 6.2 mi South 6.9 mph - N/A   Unknown
5:00 PM 47 °F - 32 °F 45% 29.85 in 31 mi SE 5.8 mph - -   Clear
5:00 PM 48.2 °F - 32.0 °F 54% 29.83 in 6.2 mi SE 5.8 mph - N/A   Unknown
5:30 PM 46.4 °F 44.3 °F 28.4 °F 50% 29.83 in 6.2 mi South 4.6 mph - N/A   Unknown
6:00 PM 45 °F - 28 °F 39% 29.87 in 37 mi WSW 3.5 mph - -   Clear
6:00 PM 44.6 °F 43.1 °F 28.4 °F 53% 29.83 in 6.2 mi Variable 3.5 mph - N/A   Unknown
6:30 PM 44.6 °F 43.1 °F 26.6 °F 49% 29.86 in 6.2 mi Variable 3.5 mph - N/A   Unknown
7:00 PM 42 °F - 26 °F 41% 29.90 in 37 mi South 3.5 mph - -   Clear
7:00 PM 42.8 °F 41.1 °F 26.6 °F 53% 29.86 in 6.2 mi South 3.5 mph - N/A   Unknown
7:30 PM 41.0 °F 38.0 °F 24.8 °F 53% 29.86 in 6.2 mi SSW 4.6 mph - N/A   Unknown
8:00 PM 40 °F - 26 °F 46% 29.90 in 37 mi SSW 9.2 mph - -   Clear
8:00 PM 41.0 °F 35.2 °F 26.6 °F 57% 29.86 in 6.2 mi SSW 9.2 mph - N/A   Unknown
8:30 PM 41.0 °F 37.1 °F 24.8 °F 53% 29.86 in 6.2 mi SW 5.8 mph - N/A   Unknown
9:00 PM 44 °F - 27 °F 39% 29.91 in 37 mi SSW 6.9 mph - -   Clear
9:00 PM 44.6 °F 40.7 °F 26.6 °F 49% 29.86 in 6.2 mi SSW 6.9 mph - N/A   Unknown
9:30 PM 44.6 °F 40.7 °F 30.2 °F 57% 29.86 in 6.2 mi WSW 6.9 mph - N/A   Unknown
10:00 PM 46 °F - 30 °F 42% 29.90 in 37 mi SSW 4.6 mph - -   Clear
10:00 PM 46.4 °F 44.3 °F 30.2 °F 53% 29.86 in 6.2 mi SSW 4.6 mph - N/A   Unknown
10:30 PM 46.4 °F 43.5 °F 30.2 °F 53% 29.86 in 6.2 mi SW 5.8 mph - N/A   Unknown
11:00 PM 44 °F - 38 °F 71% 29.92 in 8 mi SW 15.0 mph - -   Clear
11:00 PM 42.8 °F 35.4 °F 37.4 °F 81% 29.89 in 6.2 mi SW 15.0 mph - N/A   Mostly Cloudy
11:30 PM 42.8 °F 36.6 °F 39.2 °F 87% 29.89 in 6.2 mi WSW 11.5 mph - N/A Rain Light Rain